Almena, KS

4:35 PM CDT on July 22, 2014 (GMT -0500)
Sarrada Farms 0.1 mi W (KKSLOGAN2) Elev 2021 ft | 39.66 °N, 99.58 °W | Change Station
Active Advisory: Heat Advisory

Current weather conditions updated 6 seconds ago

Overcast
Overcast
100.0 °F
Feels Like 104 °F
N
4.0
Wind Variable Wind from SW
Gusts 5.0 mph

Tomorrow is forecast to be Much Cooler than today.

Today
High -- | Low -- °F
--% Chance of Precip.
Yesterday
High -- | Low -- °F
Precip. -- in
6:28 AM 9:01 PM
Waning Crescent, 15% visible
Pressure 30.00 in
Visibility 10.0 miles
Clouds Clear
Heat Index 104 °F
Dew Point 66 °F
Humidity 33%
Rainfall 0.00 in
Snow Depth Not available.
UV 9 out of 12
Pollen 6.50 out of 12
Air Quality Not available.
Flu Activity Not available.
METAR KHLC 222053Z AUTO 21007KT 10SM CLR 38/18 A3008 RMK AO2 SLP157 T03780178 58002

More Conditions Fewer Conditions

Pressure 30.00 in
Visibility 10.0 miles
Clouds Clear
Heat Index 104 °F
Dew Point 66 °F
Humidity 33%
Rainfall 0.00 in
Snow Depth Not available.
UV 9 out of 12
Pollen 6.50 out of 12
Air Quality Not available.
Flu Activity Not available.
METAR KHLC 222053Z AUTO 21007KT 10SM CLR 38/18 A3008 RMK AO2 SLP157 T03780178 58002

More Conditions Fewer Conditions

10-Day Weather Forecast

Almanac

Astronomy

Jul. 22, 2014 Rise Set
Actual Time 6:28 AM CDT 9:01 PM CDT
Civil Twilight 5:57 AM CDT 9:32 PM CDT
Nautical Twilight 5:18 AM CDT 10:11 PM CDT
Astronomical Twilight 4:35 AM CDT 10:54 PM CDT
Moon 3:02 AM CDT 5:40 PM CDT
Length of Visible Light 15h 35m
Length of Day
14h 32m
Tomorrow will be 1m 39s shorter.
Waning Crescent, 15% of the Moon is Illuminated
Today
Waning Crescent
Jul 26
New
Aug 3
First Quarter
Aug 10
Full
Aug 17
Last Quarter

Today's Extremes

State Highs State Lows

Community

WunderPhotos

Upload Photos

1,736,360 photos uploaded!

Nearby

Snow Depth

Station Depth Elevation
No new snow has been reported.

Earthquake Activity

City Distance Mag. Time & Date
No recent earthquake activity has been reported nearby.
Minimum magnitude displayed is 2.5.

Coastal Water Temperatures

Place Temperature
No Stations Reporting

Nearby Weather Stations

Station Location Temp. Heat Index Dew Point Humidity Wind Precip. Elev Updated Type
Sarrada Farms 0.1 mi W, Logan, KS 100.0 °F 104 °F 66 °F 33% SW  at  4.0 mph 0.00 in / hr 2021 ft 4:35 PM CDT Rapid Fire
HADS PRAIRIE DOG CREEK AT COUNTY ROAD KS, Norcatur, KS 97 °F 92 °F - - North  at  - 0.00 in / hr 2350 ft 3:45 PM CDT MADIS

Show More Stations Show Fewer Stations